Time;durP1;ratioP1;P1;durP2;ratioP2;P2;SDS_P1;SDS_P2;PMS_P1;PMS_P2;Temp;Humidity;BMP_temperature;BMP_pressure;BME280_temperature;BME280_humidity;BME280_pressure;Samples;Min_cycle;Max_cycle;Signal;HPM_P1;HPM_P2
2023/02/20 00:01:34;;;;;;;21.10;7.40;;;;;;;-0.21;74.00;99428.16;105158;1253;108380;-70
2023/02/20 00:04:02;;;;;;;18.40;7.40;;;;;;;-0.23;73.96;99424.20;104882;1255;96853;-68
2023/02/20 00:06:31;;;;;;;22.80;8.40;;;;;;;-0.25;73.84;99423.37;105110;1268;97087;-69
2023/02/20 00:08:58;;;;;;;22.40;7.30;;;;;;;-0.26;73.82;99424.27;105027;1252;109871;-70
2023/02/20 00:11:26;;;;;;;23.90;8.00;;;;;;;-0.28;73.85;99427.46;105082;1254;101737;-71
2023/02/20 00:13:54;;;;;;;22.60;7.20;;;;;;;-0.30;73.80;99428.00;105121;1274;108055;-69
2023/02/20 00:16:22;;;;;;;22.00;8.30;;;;;;;-0.32;73.84;99432.59;104954;1252;98055;-68
2023/02/20 00:18:51;;;;;;;21.80;8.00;;;;;;;-0.33;73.85;99428.92;105022;1252;96537;-69
2023/02/20 00:21:20;;;;;;;20.70;7.10;;;;;;;-0.35;73.69;99432.29;105086;1252;110623;-69
2023/02/20 00:23:48;;;;;;;25.00;8.80;;;;;;;-0.37;73.93;99432.51;105173;1254;100867;-70
2023/02/20 00:26:16;;;;;;;22.70;7.80;;;;;;;-0.39;73.72;99433.96;104893;1256;107906;-73
2023/02/20 00:28:44;;;;;;;24.40;9.10;;;;;;;-0.40;73.84;99438.15;105140;1253;96594;-70
2023/02/20 00:31:19;;;;;;;21.00;8.70;;;;;;;-0.42;73.77;99434.91;105071;1257;97048;-68
2023/02/20 00:33:48;;;;;;;20.80;7.50;;;;;;;-0.46;73.96;99437.08;104950;1253;109905;-69
2023/02/20 00:36:18;;;;;;;20.60;7.30;;;;;;;-0.47;73.87;99439.88;105061;1256;100558;-69
2023/02/20 00:38:47;;;;;;;22.20;7.70;;;;;;;-0.49;73.97;99440.45;104883;1253;107066;-69
2023/02/20 00:41:16;;;;;;;21.40;7.00;;;;;;;-0.50;73.84;99445.52;105059;1267;96584;-69
2023/02/20 00:43:44;;;;;;;21.50;7.60;;;;;;;-0.50;73.95;99445.87;105138;1255;97014;-70
2023/02/20 00:46:13;;;;;;;23.10;8.00;;;;;;;-0.51;73.85;99445.20;104845;1267;110743;-68
2023/02/20 00:48:43;;;;;;;22.70;8.50;;;;;;;-0.51;73.90;99445.73;105075;1256;100705;-69
2023/02/20 00:51:11;;;;;;;21.30;7.70;;;;;;;-0.52;74.05;99443.64;105149;1266;108904;-72
2023/02/20 00:53:39;;;;;;;19.50;7.40;;;;;;;-0.51;73.97;99445.55;104732;1258;97161;-69
2023/02/20 00:56:07;;;;;;;23.20;7.20;;;;;;;-0.51;74.36;99448.68;105117;1255;97175;-69
2023/02/20 00:58:35;;;;;;;22.40;8.50;;;;;;;-0.50;74.11;99444.29;105050;1255;109576;-70
2023/02/20 01:01:03;;;;;;;23.70;9.20;;;;;;;-0.48;73.94;99433.63;105018;1256;101402;-69
2023/02/20 01:03:32;;;;;;;20.80;8.30;;;;;;;-0.47;74.10;99433.43;105123;1258;108067;-69
2023/02/20 01:06:01;;;;;;;27.40;11.20;;;;;;;-0.47;74.00;99430.11;104735;1253;97050;-69
2023/02/20 01:08:29;;;;;;;23.20;9.40;;;;;;;-0.46;74.35;99432.20;105007;1266;97052;-70
2023/02/20 01:10:56;;;;;;;27.50;11.50;;;;;;;-0.43;74.31;99437.38;105022;1256;110785;-69
2023/02/20 01:13:25;;;;;;;26.60;10.00;;;;;;;-0.43;74.19;99442.94;105056;1256;101434;-69
2023/02/20 01:15:54;;;;;;;21.50;9.10;;;;;;;-0.42;74.20;99446.58;105002;1269;108208;-69
2023/02/20 01:18:22;;;;;;;24.30;8.20;;;;;;;-0.40;74.53;99447.56;105117;1256;97985;-68
2023/02/20 01:20:50;;;;;;;21.40;8.00;;;;;;;-0.38;74.39;99447.01;105110;1256;98270;-69
2023/02/20 01:23:18;;;;;;;22.90;9.10;;;;;;;-0.38;74.41;99442.65;105077;1256;110802;-69
2023/02/20 01:25:46;;;;;;;24.30;8.10;;;;;;;-0.37;74.30;99446.63;104967;1254;101364;-69
2023/02/20 01:28:15;;;;;;;24.60;8.80;;;;;;;-0.36;74.16;99448.53;105095;1258;107707;-68
2023/02/20 01:30:43;;;;;;;22.60;8.00;;;;;;;-0.35;74.34;99447.46;105041;1257;96704;-70
2023/02/20 01:33:12;;;;;;;21.50;7.80;;;;;;;-0.32;74.46;99451.58;105118;1252;97152;-69
2023/02/20 01:35:40;;;;;;;22.10;7.80;;;;;;;-0.29;74.45;99451.86;105027;1255;110200;-70
2023/02/20 01:38:08;;;;;;;20.10;8.00;;;;;;;-0.27;74.31;99450.77;105105;1256;101504;-68
2023/02/20 01:40:36;;;;;;;29.60;10.70;;;;;;;-0.25;74.27;99446.90;105142;1267;108431;-70
2023/02/20 01:43:04;;;;;;;23.80;8.50;;;;;;;-0.23;74.29;99447.90;104999;1275;97953;-68
2023/02/20 01:45:37;;;;;;;23.60;7.80;;;;;;;-0.21;74.25;99446.30;105102;1253;97351;-69
2023/02/20 01:48:05;;;;;;;28.80;9.20;;;;;;;-0.20;74.33;99444.16;104912;1257;109894;-68
2023/02/20 01:50:43;;;;;;;21.70;8.10;;;;;;;-0.17;74.34;99441.66;105147;1256;102427;-69
2023/02/20 01:53:15;;;;;;;22.00;8.60;;;;;;;-0.14;74.30;99435.48;104906;1259;107070;-70
2023/02/20 01:55:52;;;;;;;23.30;7.50;;;;;;;-0.12;74.24;99432.30;104983;1255;96609;-69
2023/02/20 01:58:25;;;;;;;22.60;7.90;;;;;;;-0.09;74.25;99437.30;105018;1252;97088;-69
2023/02/20 02:00:54;;;;;;;24.30;8.20;;;;;;;-0.06;74.23;99427.66;104897;1253;109389;-69
2023/02/20 02:03:30;;;;;;;22.50;8.10;;;;;;;-0.05;74.26;99426.05;104974;1255;100850;-69
2023/02/20 02:06:02;;;;;;;24.80;8.00;;;;;;;-0.02;74.23;99420.05;104932;1256;107687;-69
2023/02/20 02:08:31;;;;;;;22.50;7.90;;;;;;;0.00;74.22;99416.35;104985;1272;96655;-69
2023/02/20 02:11:09;;;;;;;21.70;7.00;;;;;;;0.01;74.23;99416.31;104959;1255;97169;-69
2023/02/20 02:13:38;;;;;;;29.70;8.90;;;;;;;0.03;74.16;99422.90;104871;1257;109907;-71
2023/02/20 02:16:43;;;;;;;21.50;6.80;;;;;;;0.03;74.22;99414.00;104912;1256;101041;-70
2023/02/20 02:19:17;;;;;;;22.20;7.20;;;;;;;0.06;74.31;99414.47;104950;1275;107778;-70
2023/02/20 02:21:51;;;;;;;19.80;7.40;;;;;;;0.07;74.30;99420.73;104956;1260;96618;-70
2023/02/20 02:24:48;;;;;;;21.20;8.60;;;;;;;0.09;74.39;99426.78;104985;1257;96592;-69
2023/02/20 02:27:24;;;;;;;22.80;7.20;;;;;;;0.09;74.35;99423.09;105078;1256;110450;-69
2023/02/20 02:29:54;;;;;;;20.90;6.90;;;;;;;0.11;74.33;99419.54;104858;1253;100853;-69
2023/02/20 02:32:28;;;;;;;20.10;7.30;;;;;;;0.13;74.43;99428.77;105186;1271;107689;-68
2023/02/20 02:35:07;;;;;;;20.50;7.20;;;;;;;0.14;74.40;99429.79;104981;1253;96627;-70
2023/02/20 02:37:54;;;;;;;23.90;8.10;;;;;;;0.16;74.26;99435.15;105129;1257;98217;-68
2023/02/20 02:40:42;;;;;;;20.40;7.00;;;;;;;0.18;74.35;99433.72;104946;1253;110316;-70
2023/02/20 02:43:31;;;;;;;21.50;7.70;;;;;;;0.19;74.33;99435.08;105019;1264;100539;-73
2023/02/20 02:46:11;;;;;;;23.40;7.20;;;;;;;0.21;74.16;99435.01;104925;1257;108083;-72
2023/02/20 02:48:56;;;;;;;18.10;6.70;;;;;;;0.24;74.22;99438.77;104679;1256;163638;-70
2023/02/20 02:51:31;;;;;;;21.00;7.30;;;;;;;0.27;74.25;99431.23;104936;1256;97087;-68
2023/02/20 02:54:25;;;;;;;20.50;6.80;;;;;;;0.29;74.21;99432.73;104952;1255;109950;-71
2023/02/20 02:57:23;;;;;;;20.40;6.50;;;;;;;0.32;74.27;99434.41;104779;1273;101375;-69
2023/02/20 02:59:58;;;;;;;21.10;6.90;;;;;;;0.34;74.33;99435.06;104963;1255;107697;-71
2023/02/20 03:02:31;;;;;;;23.90;8.60;;;;;;;0.36;74.11;99433.09;104954;1255;96972;-68
2023/02/20 03:05:04;;;;;;;22.50;10.10;;;;;;;0.39;74.18;99434.60;104864;1258;96534;-70
2023/02/20 03:07:36;;;;;;;23.00;7.90;;;;;;;0.39;74.09;99433.71;104947;1255;109582;-69
2023/02/20 03:10:08;;;;;;;25.50;8.10;;;;;;;0.41;74.16;99429.13;104899;1255;101244;-69
2023/02/20 03:12:42;;;;;;;21.10;7.30;;;;;;;0.42;74.19;99426.64;104773;1269;107747;-68
2023/02/20 03:15:34;;;;;;;19.80;7.80;;;;;;;0.43;74.18;99420.70;105090;1256;97101;-70
2023/02/20 03:18:11;;;;;;;22.70;7.70;;;;;;;0.43;74.20;99408.83;105001;1255;97071;-72
2023/02/20 03:20:47;;;;;;;19.90;7.20;;;;;;;0.44;74.04;99411.06;104999;1256;109938;-69
2023/02/20 03:23:30;;;;;;;21.10;7.60;;;;;;;0.44;74.15;99417.35;104798;1275;100889;-69
2023/02/20 03:26:04;;;;;;;22.70;8.90;;;;;;;0.45;74.00;99417.33;104846;1256;107313;-72
2023/02/20 03:28:40;;;;;;;20.10;7.40;;;;;;;0.47;74.14;99416.59;105047;1255;97916;-69
2023/02/20 03:31:18;;;;;;;19.90;7.80;;;;;;;0.48;74.15;99427.90;104810;1257;97946;-69
2023/02/20 03:45:24;;;;;;;21.50;6.70;;;;;;;0.52;74.19;99416.10;104916;1268;98453;-70
2023/02/20 03:47:55;;;;;;;22.90;7.00;;;;;;;0.51;74.02;99414.21;105019;1252;108549;-70
2023/02/20 03:53:11;;;;;;;20.70;7.00;;;;;;;0.49;73.97;99410.43;105008;1259;108514;-71
2023/02/20 03:55:39;;;;;;;18.30;6.60;;;;;;;0.46;73.78;99407.54;105038;1266;96618;-71
2023/02/20 03:58:10;;;;;;;23.50;7.90;;;;;;;0.43;73.88;99398.35;105072;1253;96686;-68
2023/02/20 04:00:44;;;;;;;22.50;8.00;;;;;;;0.40;73.77;99396.54;104997;1255;109883;-69
2023/02/20 04:03:19;;;;;;;26.50;9.00;;;;;;;0.37;73.91;99397.31;104885;1256;100481;-68
2023/02/20 04:05:51;;;;;;;23.30;8.00;;;;;;;0.34;73.92;99394.42;105016;1269;107222;-68
2023/02/20 04:08:35;;;;;;;21.70;8.10;;;;;;;0.32;74.07;99392.18;104963;1255;96607;-69
2023/02/20 04:11:07;;;;;;;;;;;;;;;0.29;73.84;99393.65;104894;1255;96604;-69
2023/02/20 04:13:38;;;;;;;24.20;8.10;;;;;;;0.26;74.03;99399.48;104903;1255;109603;-69
2023/02/20 04:16:08;;;;;;;22.80;8.40;;;;;;;0.25;73.91;99399.16;104912;1257;100628;-69
2023/02/20 04:18:36;;;;;;;26.50;9.40;;;;;;;0.24;74.00;99397.81;105035;1256;107493;-68
2023/02/20 04:21:10;;;;;;;23.90;8.50;;;;;;;0.20;73.97;99399.64;105033;1256;96595;-68
2023/02/20 04:23:41;;;;;;;;;;;;;;;0.16;73.98;99395.02;105027;1255;96648;-68
2023/02/20 04:26:15;;;;;;;23.70;8.40;;;;;;;0.11;73.81;99391.67;104927;1257;110819;-69
2023/02/20 04:28:44;;;;;;;25.70;9.70;;;;;;;0.07;73.96;99386.19;104979;1256;100879;-70
2023/02/20 04:31:14;;;;;;;20.70;7.70;;;;;;;0.02;73.94;99389.61;104865;1256;108297;-72
2023/02/20 04:33:43;;;;;;;24.20;8.60;;;;;;;-0.01;73.82;99389.52;104764;1255;96680;-69
2023/02/20 04:36:11;;;;;;;25.80;8.80;;;;;;;-0.04;73.80;99378.95;104933;1257;96599;-69
2023/02/20 04:38:39;;;;;;;22.20;8.00;;;;;;;-0.07;73.73;99382.52;104906;1256;109921;-69
2023/02/20 04:41:07;;;;;;;22.90;8.30;;;;;;;-0.10;73.91;99376.48;105060;1258;101792;-69
2023/02/20 04:43:35;;;;;;;27.00;8.40;;;;;;;-0.10;73.79;99374.41;104838;1258;108223;-68
2023/02/20 04:46:03;;;;;;;23.00;8.00;;;;;;;-0.12;73.80;99373.05;105032;1269;97310;-69
2023/02/20 04:48:31;;;;;;;26.00;8.20;;;;;;;-0.13;73.81;99371.16;104992;1255;97055;-68
2023/02/20 04:50:59;;;;;;;26.20;8.60;;;;;;;-0.14;73.87;99370.65;105085;1255;110542;-69
2023/02/20 04:53:29;;;;;;;24.90;8.60;;;;;;;-0.13;73.76;99370.64;105105;1255;101789;-69
2023/02/20 04:55:57;;;;;;;26.60;8.60;;;;;;;-0.13;73.86;99366.27;104648;1268;108221;-69
2023/02/20 04:58:25;;;;;;;28.80;9.20;;;;;;;-0.12;73.80;99366.08;108681;1252;94704;-69
2023/02/20 05:00:53;;;;;;;24.70;8.60;;;;;;;-0.12;73.80;99366.77;108673;1252;94372;-70
2023/02/20 05:03:21;;;;;;;26.70;8.60;;;;;;;-0.11;73.70;99365.52;108738;1253;109851;-67
2023/02/20 05:05:48;;;;;;;23.70;8.90;;;;;;;-0.13;73.60;99365.06;108682;1255;100902;-68
2023/02/20 05:08:16;;;;;;;23.40;8.40;;;;;;;-0.15;73.71;99358.98;108687;1252;107630;-67
2023/02/20 05:10:45;;;;;;;24.50;9.60;;;;;;;-0.18;73.70;99352.08;108633;1252;94329;-68
2023/02/20 05:13:13;;;;;;;25.30;8.70;;;;;;;-0.20;73.48;99344.80;104944;1255;97032;-70
2023/02/20 05:15:41;;;;;;;20.70;7.80;;;;;;;-0.21;73.53;99347.46;105044;1257;108935;-68
2023/02/20 05:18:09;;;;;;;20.80;8.10;;;;;;;-0.22;73.59;99347.66;105142;1257;102063;-69
2023/02/20 05:23:23;;;;;;;26.80;8.00;;;;;;;-0.25;73.54;99350.69;104997;1256;97931;-69
2023/02/20 05:25:53;;;;;;;20.80;7.40;;;;;;;-0.28;73.64;99349.72;104932;1255;99551;-68
2023/02/20 05:28:21;;;;;;;25.90;8.10;;;;;;;-0.30;73.62;99348.54;104929;1256;109899;-69
2023/02/20 05:30:49;;;;;;;24.70;7.70;;;;;;;-0.32;73.74;99352.59;104757;1255;100235;-70
2023/02/20 05:33:17;;;;;;;21.70;7.80;;;;;;;-0.32;73.66;99358.52;105127;1264;106669;-69
2023/02/20 05:35:45;;;;;;;26.60;9.20;;;;;;;-0.33;73.55;99360.80;104931;1269;97613;-70
2023/02/20 05:38:17;;;;;;;24.20;9.00;;;;;;;-0.33;73.68;99359.23;104913;1255;97115;-68
2023/02/20 05:40:45;;;;;;;26.20;10.10;;;;;;;-0.33;73.64;99359.41;104963;1255;109892;-70
2023/02/20 05:43:16;;;;;;;26.70;9.70;;;;;;;-0.34;73.61;99363.27;105090;1256;101481;-71
2023/02/20 05:45:44;;;;;;;26.50;11.60;;;;;;;-0.34;73.63;99365.36;105024;1253;106577;-69
2023/02/20 05:48:12;;;;;;;24.80;8.50;;;;;;;-0.32;73.67;99366.89;104889;1271;97417;-69
2023/02/20 05:50:40;;;;;;;21.50;8.10;;;;;;;-0.30;73.66;99372.59;105108;1275;97020;-70
2023/02/20 05:53:08;;;;;;;28.30;10.10;;;;;;;-0.28;73.72;99373.95;105097;1255;109884;-69
2023/02/20 05:55:36;;;;;;;23.50;9.10;;;;;;;-0.26;73.60;99377.05;105064;1256;101422;-69
2023/02/20 05:58:04;;;;;;;26.60;9.60;;;;;;;-0.23;73.74;99376.28;104954;1256;108195;-71
2023/02/20 06:00:32;;;;;;;25.60;9.00;;;;;;;-0.19;73.72;99370.23;104913;1256;96738;-70
2023/02/20 06:03:00;;;;;;;22.40;9.20;;;;;;;-0.15;73.68;99369.80;105010;1256;96926;-68
2023/02/20 06:05:28;;;;;;;25.60;9.90;;;;;;;-0.10;73.77;99378.56;106461;1255;110339;-69
2023/02/20 06:07:56;;;;;;;23.00;9.10;;;;;;;-0.05;73.64;99382.48;105715;1255;101365;-69
2023/02/20 06:10:25;;;;;;;24.60;8.90;;;;;;;-0.00;73.75;99388.63;107598;1255;107224;-69
2023/02/20 06:12:53;;;;;;;22.20;8.90;;;;;;;0.04;73.74;99390.09;105111;1256;96585;-70
2023/02/20 06:15:21;;;;;;;26.30;8.90;;;;;;;0.07;73.71;99388.27;105016;1255;97087;-69
2023/02/20 06:17:49;;;;;;;29.80;10.10;;;;;;;0.10;73.80;99390.64;107551;1255;110705;-69
2023/02/20 06:20:17;;;;;;;25.70;10.50;;;;;;;0.14;73.63;99393.50;104991;1255;101744;-69
2023/02/20 06:22:47;;;;;;;24.70;8.30;;;;;;;0.19;73.72;99391.48;105051;1255;107588;-68
2023/02/20 06:25:15;;;;;;;23.10;8.20;;;;;;;0.25;73.68;99389.21;108751;1252;94548;-69
2023/02/20 06:27:43;;;;;;;22.50;8.10;;;;;;;0.32;73.71;99388.54;108786;1253;94340;-70
2023/02/20 06:30:12;;;;;;;20.00;7.60;;;;;;;0.39;73.65;99393.77;105498;1255;109870;-69
2023/02/20 06:32:40;;;;;;;25.00;8.50;;;;;;;0.45;73.64;99391.15;104891;1256;100886;-71
2023/02/20 06:35:08;;;;;;;21.70;7.80;;;;;;;0.53;73.57;99390.27;104996;1267;107089;-68
2023/02/20 06:37:36;;;;;;;23.30;7.50;;;;;;;0.60;73.51;99393.91;105034;1255;97942;-69
2023/02/20 06:40:05;;;;;;;24.30;8.00;;;;;;;0.67;73.60;99396.52;104969;1255;97081;-70
2023/02/20 06:42:33;;;;;;;23.40;7.10;;;;;;;0.74;73.61;99396.15;105008;1252;109922;-68
2023/02/20 06:45:01;;;;;;;20.30;6.90;;;;;;;0.81;73.69;99396.67;105035;1256;101250;-70
2023/02/20 06:47:29;;;;;;;23.60;7.30;;;;;;;0.87;73.49;99400.70;105031;1254;108232;-68
2023/02/20 06:49:57;;;;;;;20.60;6.90;;;;;;;0.93;73.80;99398.62;104971;1261;96591;-69
2023/02/20 06:52:25;;;;;;;19.80;6.70;;;;;;;0.99;73.47;99399.52;104822;1256;97109;-71
2023/02/20 06:54:53;;;;;;;16.50;6.40;;;;;;;1.03;73.61;99392.73;105057;1258;110147;-69
2023/02/20 06:57:21;;;;;;;20.20;6.90;;;;;;;1.08;73.55;99393.84;104967;1258;100723;-69
2023/02/20 06:59:49;;;;;;;18.70;6.30;;;;;;;1.12;73.44;99396.85;105046;1266;110578;-68
2023/02/20 07:02:17;;;;;;;19.70;6.80;;;;;;;1.16;73.46;99395.86;104805;1258;96648;-69
2023/02/20 07:04:49;;;;;;;16.60;5.40;;;;;;;1.24;73.70;99386.21;105059;1256;97090;-69
2023/02/20 07:07:17;;;;;;;18.00;5.70;;;;;;;1.31;73.23;99383.03;105087;1257;109921;-68
2023/02/20 07:09:45;;;;;;;19.50;6.40;;;;;;;1.40;73.61;99382.25;105123;1255;101518;-69
2023/02/20 07:12:13;;;;;;;21.60;5.20;;;;;;;1.48;73.25;99380.43;105042;1269;108109;-69
2023/02/20 07:14:44;;;;;;;15.10;5.40;;;;;;;1.56;73.48;99378.45;105065;1256;96613;-69
2023/02/20 07:17:12;;;;;;;19.40;6.10;;;;;;;1.63;72.82;99379.42;105063;1255;97408;-69
2023/02/20 07:19:40;;;;;;;19.50;5.80;;;;;;;1.68;72.61;99382.43;105349;1255;110756;-69
2023/02/20 07:22:08;;;;;;;20.20;6.20;;;;;;;1.72;73.36;99377.95;105132;1255;101281;-70
2023/02/20 07:24:36;;;;;;;22.40;8.00;;;;;;;1.75;72.94;99378.55;105219;1258;108440;-69
2023/02/20 07:27:05;;;;;;;19.20;6.00;;;;;;;1.77;72.92;99379.52;104968;1257;96580;-69
2023/02/20 07:29:33;;;;;;;19.40;6.10;;;;;;;1.80;72.78;99367.56;104990;1255;97095;-70
2023/02/20 07:32:02;;;;;;;17.90;6.40;;;;;;;1.82;72.62;99372.23;105009;1255;110753;-69
2023/02/20 07:34:30;;;;;;;20.50;6.70;;;;;;;1.84;72.84;99364.29;105106;1275;101647;-69
2023/02/20 07:36:58;;;;;;;16.90;5.70;;;;;;;1.84;72.86;99358.85;104947;1254;107998;-71
2023/02/20 07:39:26;;;;;;;21.30;6.40;;;;;;;1.85;72.99;99360.40;105038;1258;96658;-71
2023/02/20 07:41:55;;;;;;;17.10;5.90;;;;;;;1.85;73.03;99357.41;105112;1255;97516;-69
2023/02/20 07:44:23;;;;;;;18.60;6.20;;;;;;;1.86;72.75;99351.10;104987;1256;110280;-70
2023/02/20 07:46:50;;;;;;;22.40;6.20;;;;;;;1.88;73.12;99349.48;105234;1263;100461;-68
2023/02/20 07:49:18;;;;;;;13.80;5.00;;;;;;;1.90;72.55;99345.35;105057;1255;107519;-73
2023/02/20 07:51:46;;;;;;;18.30;5.90;;;;;;;1.94;72.81;99339.13;104979;1275;97193;-68
2023/02/20 07:54:14;;;;;;;13.60;4.80;;;;;;;1.98;72.56;99322.21;105019;1252;97807;-70
2023/02/20 07:56:42;;;;;;;12.80;4.30;;;;;;;2.02;72.60;99320.34;104832;1257;110808;-69
2023/02/20 07:59:10;;;;;;;14.30;4.30;;;;;;;2.07;72.54;99321.91;104999;1265;101766;-67
2023/02/20 08:01:38;;;;;;;16.30;5.50;;;;;;;2.14;72.53;99320.98;105142;1266;107545;-69
2023/02/20 08:04:08;;;;;;;14.90;4.80;;;;;;;2.22;72.17;99323.31;104981;1256;96595;-69
2023/02/20 08:06:36;;;;;;;14.20;5.00;;;;;;;2.32;71.82;99306.35;105047;1255;97113;-70
2023/02/20 08:09:06;;;;;;;14.80;4.30;;;;;;;2.43;72.60;99291.81;104975;1255;109344;-69
2023/02/20 08:11:36;;;;;;;21.30;5.00;;;;;;;2.52;72.12;99292.70;105107;1256;100872;-71
2023/02/20 08:14:05;;;;;;;14.00;4.40;;;;;;;2.61;71.91;99294.15;105087;1253;107656;-69
2023/02/20 08:16:33;;;;;;;13.60;4.50;;;;;;;2.68;72.34;99291.77;104981;1254;97431;-68
2023/02/20 08:19:01;;;;;;;16.50;4.70;;;;;;;2.75;71.31;99303.27;105007;1255;97963;-69
2023/02/20 08:21:29;;;;;;;14.70;4.20;;;;;;;2.82;71.95;99312.80;105001;1255;109447;-68
2023/02/20 08:23:57;;;;;;;11.20;3.90;;;;;;;2.90;72.00;99314.42;104839;1267;101178;-73
2023/02/20 08:26:25;;;;;;;16.20;5.30;;;;;;;2.95;71.24;99309.19;104985;1266;108534;-71
2023/02/20 08:28:53;;;;;;;11.90;3.50;;;;;;;2.99;70.70;99301.67;104993;1258;96591;-69
2023/02/20 08:31:22;;;;;;;23.80;8.90;;;;;;;3.05;71.15;99298.30;105042;1259;97087;-70
2023/02/20 08:34:00;;;;;;;14.10;5.20;;;;;;;3.10;71.82;99290.20;105082;1254;109424;-71
2023/02/20 08:36:28;;;;;;;15.80;4.90;;;;;;;3.13;72.47;99282.39;105116;1268;100580;-71
2023/02/20 08:38:58;;;;;;;10.80;4.50;;;;;;;3.17;72.21;99280.66;105316;1266;107629;-69
2023/02/20 08:41:26;;;;;;;11.20;5.10;;;;;;;3.26;72.10;99277.86;105285;1253;96705;-68
2023/02/20 08:43:55;;;;;;;12.90;4.00;;;;;;;3.40;72.04;99279.08;105021;1255;98159;-70
2023/02/20 08:46:24;;;;;;;10.10;3.40;;;;;;;3.56;72.32;99280.55;105035;1258;110757;-70
2023/02/20 08:48:52;;;;;;;13.20;3.40;;;;;;;3.67;71.06;99286.07;105223;1256;100819;-68
2023/02/20 08:51:20;;;;;;;11.10;3.30;;;;;;;3.74;71.54;99281.20;104832;1268;108347;-71
2023/02/20 08:53:48;;;;;;;9.50;3.20;;;;;;;3.80;72.21;99279.20;105037;1256;96609;-69
2023/02/20 08:56:20;;;;;;;13.20;3.60;;;;;;;3.83;71.92;99276.29;105077;1255;97109;-69
2023/02/20 08:58:48;;;;;;;10.40;3.60;;;;;;;3.85;71.52;99280.05;105068;1257;111383;-69
2023/02/20 09:01:16;;;;;;;13.00;3.90;;;;;;;3.88;71.57;99280.27;105009;1257;100550;-69
2023/02/20 09:03:44;;;;;;;14.30;3.80;;;;;;;3.92;71.96;99274.34;104994;1259;108569;-69
2023/02/20 09:06:12;;;;;;;11.70;3.20;;;;;;;3.96;71.95;99267.85;105048;1256;97924;-69
2023/02/20 09:08:41;;;;;;;11.10;3.60;;;;;;;4.06;72.13;99269.55;105039;1267;98369;-68
2023/02/20 09:11:10;;;;;;;11.00;3.50;;;;;;;4.15;72.18;99268.95;104993;1255;110007;-69
2023/02/20 09:13:46;;;;;;;9.70;3.80;;;;;;;4.21;71.81;99254.32;104991;1267;100885;-69
2023/02/20 09:16:18;;;;;;;14.20;3.70;;;;;;;4.24;71.78;99237.19;105101;1258;106295;-68
2023/02/20 09:18:47;;;;;;;12.50;4.30;;;;;;;4.25;71.77;99237.48;105004;1255;96535;-70
2023/02/20 09:21:18;;;;;;;14.00;4.40;;;;;;;4.26;71.70;99230.27;104958;1256;97009;-68
2023/02/20 09:23:46;;;;;;;12.10;3.50;;;;;;;4.23;71.73;99224.41;104977;1255;109952;-69
2023/02/20 09:26:14;;;;;;;11.30;4.10;;;;;;;4.22;71.64;99225.67;105112;1257;101664;-68
2023/02/20 09:28:42;;;;;;;12.60;4.10;;;;;;;4.19;71.61;99216.31;105118;1257;107433;-68
2023/02/20 09:31:10;;;;;;;12.30;4.00;;;;;;;4.22;70.90;99209.02;104971;1275;97917;-69
2023/02/20 09:33:43;;;;;;;12.60;3.90;;;;;;;4.26;71.36;99209.52;105085;1257;97079;-70
2023/02/20 09:36:11;;;;;;;10.80;3.50;;;;;;;4.36;71.34;99209.63;105054;1265;109930;-69
2023/02/20 09:38:40;;;;;;;14.60;4.30;;;;;;;4.43;71.11;99203.48;105147;1255;100519;-69
2023/02/20 09:41:22;;;;;;;11.40;3.60;;;;;;;4.53;71.29;99199.19;105199;1266;106281;-71
2023/02/20 09:44:03;;;;;;;14.30;3.80;;;;;;;4.65;71.35;99197.06;104850;1255;96612;-71
2023/02/20 09:46:32;;;;;;;15.20;3.70;;;;;;;4.75;71.07;99195.53;105075;1256;98459;-68
2023/02/20 09:49:24;;;;;;;10.40;3.50;;;;;;;4.85;71.35;99201.06;104790;1256;110166;-69
2023/02/20 09:52:00;;;;;;;8.70;3.30;;;;;;;4.94;71.19;99195.91;104890;1256;100510;-69
2023/02/20 09:54:36;;;;;;;11.40;3.50;;;;;;;4.97;70.83;99190.15;105078;1254;107739;-70
2023/02/20 09:57:11;;;;;;;12.60;3.60;;;;;;;5.01;70.84;99175.01;104921;1258;96640;-70
2023/02/20 09:59:45;;;;;;;11.10;3.80;;;;;;;5.04;70.64;99158.18;105217;1257;97182;-69
2023/02/20 10:02:32;;;;;;;11.40;3.40;;;;;;;5.09;70.72;99150.18;104907;1256;109883;-70
2023/02/20 10:05:13;;;;;;;11.40;3.60;;;;;;;5.15;70.57;99144.08;105298;1256;101031;-71
2023/02/20 10:07:41;;;;;;;10.20;3.50;;;;;;;5.19;70.43;99147.39;104799;1267;107605;-73
2023/02/20 10:10:20;;;;;;;9.20;3.40;;;;;;;5.25;70.62;99141.14;104823;1258;96985;-70
2023/02/20 10:13:24;;;;;;;11.70;3.60;;;;;;;5.29;70.27;99137.42;105068;1258;97093;-69
2023/02/20 10:15:55;;;;;;;11.00;4.10;;;;;;;5.34;70.15;99134.70;105235;1254;110475;-69
2023/02/20 10:18:48;;;;;;;19.60;5.60;;;;;;;5.41;69.88;99133.86;104840;1267;100911;-70
2023/02/20 10:21:32;;;;;;;18.00;5.40;;;;;;;5.50;70.20;99144.65;105222;1253;108193;-72
2023/02/20 10:24:17;;;;;;;16.70;4.50;;;;;;;5.44;69.60;99140.40;105033;1256;97971;-70
2023/02/20 10:26:49;;;;;;;30.70;11.60;;;;;;;5.30;69.62;99132.27;105068;1256;96603;-68
2023/02/20 10:29:24;;;;;;;33.10;14.40;;;;;;;5.23;69.37;99134.76;105119;1255;110631;-69
2023/02/20 10:32:01;;;;;;;30.40;10.90;;;;;;;5.16;69.56;99127.19;104925;1269;99527;-73
2023/02/20 10:34:46;;;;;;;21.60;8.20;;;;;;;5.13;69.57;99120.46;104856;1266;106771;-70
2023/02/20 10:37:18;;;;;;;22.40;7.30;;;;;;;5.11;69.16;99106.15;105005;1258;96574;-69
2023/02/20 10:39:58;;;;;;;28.80;12.10;;;;;;;5.11;69.59;99103.34;105001;1255;97096;-69
2023/02/20 10:42:51;;;;;;;21.90;8.10;;;;;;;5.16;69.27;99100.25;104884;1266;109882;-70
2023/02/20 10:45:43;;;;;;;23.20;8.90;;;;;;;5.25;69.59;99091.55;105053;1259;99703;-73
2023/02/20 10:48:15;;;;;;;18.40;6.50;;;;;;;5.42;69.68;99082.95;104744;1254;108194;-69
2023/02/20 10:51:02;;;;;;;20.40;7.90;;;;;;;5.61;69.62;99078.29;104865;1258;96668;-70
2023/02/20 10:53:48;;;;;;;12.10;4.10;;;;;;;5.78;69.53;99069.16;104849;1256;97083;-69
2023/02/20 10:56:21;;;;;;;22.00;7.60;;;;;;;5.87;69.34;99065.73;104901;1256;110259;-69
2023/02/20 10:59:07;;;;;;;20.40;7.50;;;;;;;5.91;68.45;99068.47;104997;1265;101464;-69
2023/02/20 11:01:36;;;;;;;13.80;5.10;;;;;;;5.89;68.39;99063.80;105069;1265;107658;-71
2023/02/20 11:04:20;;;;;;;23.70;6.80;;;;;;;5.87;68.76;99059.00;105100;1266;97408;-69
2023/02/20 11:07:17;;;;;;;16.20;5.60;;;;;;;5.81;68.35;99048.23;104937;1257;96659;-67
2023/02/20 11:09:44;;;;;;;11.90;5.10;;;;;;;5.73;67.19;99044.92;104955;1257;108912;-69
2023/02/20 11:12:52;;;;;;;15.90;5.20;;;;;;;5.67;68.23;99041.80;105151;1256;103020;-69
2023/02/20 11:15:25;;;;;;;12.60;4.80;;;;;;;5.65;67.55;99030.59;105441;1263;106187;-72
2023/02/20 11:17:55;;;;;;;10.50;4.30;;;;;;;5.61;68.41;99017.83;105007;1256;97529;-69
2023/02/20 11:20:37;;;;;;;11.20;4.30;;;;;;;5.59;68.10;99009.30;104846;1260;97184;-68
2023/02/20 11:23:06;;;;;;;10.70;3.80;;;;;;;5.53;67.36;98991.82;105052;1260;109914;-69
2023/02/20 11:25:40;;;;;;;12.50;4.50;;;;;;;5.46;67.80;98987.11;105050;1266;101470;-69
2023/02/20 11:28:25;;;;;;;11.10;5.20;;;;;;;5.45;68.00;98981.68;105022;1267;108906;-71
2023/02/20 11:31:02;;;;;;;10.90;4.20;;;;;;;5.45;67.96;98979.21;104857;1256;96681;-68
2023/02/20 11:33:35;;;;;;;14.70;4.40;;;;;;;5.41;67.81;98969.25;105325;1257;97099;-69
2023/02/20 11:36:14;;;;;;;11.50;4.40;;;;;;;5.37;67.68;98972.61;105242;1257;109636;-67
2023/02/20 11:38:47;;;;;;;11.00;4.60;;;;;;;5.38;67.15;98970.66;104942;1265;100901;-68
2023/02/20 11:41:25;;;;;;;15.90;4.50;;;;;;;5.31;67.48;98965.39;105076;1271;106963;-68
2023/02/20 11:44:13;;;;;;;13.40;4.60;;;;;;;5.25;67.86;98968.36;104855;1259;96777;-68
2023/02/20 11:46:42;;;;;;;13.90;5.00;;;;;;;5.17;67.46;98962.95;104739;1275;97139;-69
2023/02/20 11:49:27;;;;;;;14.00;4.70;;;;;;;5.04;67.58;98954.98;105088;1257;109862;-70
2023/02/20 11:52:20;;;;;;;11.90;4.70;;;;;;;4.92;67.53;98945.56;105377;1265;100880;-67
2023/02/20 11:55:19;;;;;;;15.80;5.00;;;;;;;4.83;67.76;98934.78;104841;1267;107069;-69
2023/02/20 11:57:49;;;;;;;18.70;6.00;;;;;;;4.78;67.71;98921.88;104938;1256;98024;-68
2023/02/20 12:00:22;;;;;;;13.40;4.70;;;;;;;4.75;67.81;98913.23;104948;1258;97129;-70